To NAV CANADA Home Page Login to a new session Search on AWWS site Feedback and Comments Disclaimer Vers la page française équivalente Tips FAQ What's new on the site To the Forecasts and Observations / NOTAM section To "File a Flight Plan" website Publications and other links Update of the User's profile FIC Telephone Numbers My Weather Data Folder Route Weather Data Regional Weather Data Local Weather Data To the Forecasts and Observations / NOTAM section
Request Generated 06/27/2016 at 20:11:50 UTC . Weather information available at that time is displayed.

METAR/TAF

TORONTO/BILLY BISHOP TORONTO CITY AIRPORT/ON    (show WxCam)

METAR CYTZ 272000Z AUTO 27015G24KT 9SM SCT095 31/12 A2982 RMK SLP100
DENSITY ALT 2200FT=
METAR CYTZ 271900Z AUTO 22009KT 200V270 9SM SCT085 28/16 A2984 RMK
SLP106 DENSITY ALT 1800FT=
SPECI CYTZ 271810Z AUTO 26015KT 9SM FEW080 29/16 A2985 RMK WSHFT AT
1800Z SLP110 DENSITY ALT 2000FT=
METAR CYTZ 271800Z AUTO 21008KT 9SM SCT080 SCT091 25/16 A2985 RMK
SLP110 DENSITY ALT 1500FT=

TAF CYTZ 271938Z 2720/2820 21011KT P6SM SCT080
BECMG 2720/2722 25011KT
BECMG 2800/2802 30006KT
FM281000 29006KT P6SM FEW080
FM281700 25008KT P6SM -SHRA BKN040
RMK FCST BASED ON AUTO OBS. NXT FCST BY 280200Z=
Your time UTC time
Weather data provided by Environment Canada and NAV CANADA